CMA CGM Thalassa — 5BNE2 — position and weather

sailwx.info

Track history (hours):
 
Tides and Currents Weather Stations Pressure Air Temp Water Temp Dewpoint Dewpoint Depression Visibility Wind Speed Wind Dir Waves Ship Positions

CMA CGM Thalassa

Last reported at 2014-Jul-25 07:32 UTC. Time now 2014-Jul-25 09:05 UTC.
Position N 39°49' W 009°50'.

Length 347 m; draft 15.3 m.

Type: Ship (hazmat cat A). MMSI: 212151000.

Date/timePositionNaut miles runAvg speedWind from/ knotsBaromVisibWave heightAir tempDewpointWater temp
2014-Jul-25 07:32N 39°49' W 009°50'7819.5
2014-Jul-25 03:31N 38°31' W 009°47'2020.2
2014-Jul-25 02:33N 38°12' W 009°41'2020.0
2014-Jul-25 01:33N 37°52' W 009°36'2020.2
2014-Jul-25 00:33N 37°33' W 009°31'2220.2
2014-Jul-24 23:26N 37°11' W 009°26'1819.6
2014-Jul-24 22:33N 36°53' W 009°21'1918.9
2014-Jul-24 21:31N 36°42' W 009°01'1920.0
2014-Jul-24 20:33N 36°37' W 008°38'2319.5
2014-Jul-24 19:24N 36°30' W 008°11'1619.7
2014-Jul-24 18:33N 36°24' W 007°52'2020.0
2014-Jul-24 17:33N 36°18' W 007°28'26619.0
2014-Jul-24 03:31N 36°29' W 001°58'2020.7
2014-Jul-24 02:33N 36°32' W 001°33'4020.4
2014-Jul-24 00:34N 36°39' W 000°44'2020.3
2014-Jul-23 23:33N 36°43' W 000°19'2020.5
2014-Jul-23 22:33N 36°47' E 000°06'2120.5
2014-Jul-23 21:33N 36°51' E 000°32'2020.3
2014-Jul-23 20:33N 36°54' E 000°57'2121.0
2014-Jul-23 19:33N 36°58' E 001°22'2019.6
2014-Jul-23 18:33N 37°02' E 001°46'2121.3
2014-Jul-23 17:33N 37°05' E 002°13'2121.0
2014-Jul-23 16:33N 37°09' E 002°39'2020.3
2014-Jul-23 15:33N 37°13' E 003°04'2020.4
2014-Jul-23 14:34N 37°16' E 003°29'2120.7
2014-Jul-23 13:33N 37°20' E 003°55'2120.7
2014-Jul-23 12:33N 37°24' E 004°20'2120.9
2014-Jul-23 11:34N 37°27' E 004°46'2422.4
2014-Jul-23 10:30N 37°32' E 005°16'1819.0
2014-Jul-23 09:33N 37°35' E 005°38'2120.8
2014-Jul-23 08:33N 37°39' E 006°04'4521.2
2014-Jul-23 06:25N 37°47' E 006°60'30519.0
2014-Jul-22 14:24N 36°44' E 013°15'1720.1
2014-Jul-22 13:33N 36°39' E 013°35'2020.1
2014-Jul-22 12:33N 36°33' E 013°59'2020.0
2014-Jul-22 11:33N 36°27' E 014°23'  
Track history (hours):
 
Tides and Currents Weather Stations Pressure Air Temp Water Temp Dewpoint Dewpoint Depression Visibility Wind Speed Wind Dir Waves Ship Positions

CMA CGM Thalassa

Last reported at 2014-Jul-25 07:32 UTC. Time now 2014-Jul-25 09:05 UTC.
Position N 39°49' W 009°50'.

Length 347 m; draft 15.3 m.

Type: Ship (hazmat cat A). MMSI: 212151000.

Date/timePositionNaut miles runAvg speedWind from/ knotsBaromVisibWave heightAir tempDewpointWater temp
2014-Jul-25 07:32N 39°49' W 009°50'7819.5
2014-Jul-25 03:31N 38°31' W 009°47'2020.2
2014-Jul-25 02:33N 38°12' W 009°41'2020.0
2014-Jul-25 01:33N 37°52' W 009°36'2020.2
2014-Jul-25 00:33N 37°33' W 009°31'2220.2
2014-Jul-24 23:26N 37°11' W 009°26'1819.6
2014-Jul-24 22:33N 36°53' W 009°21'1918.9
2014-Jul-24 21:31N 36°42' W 009°01'1920.0
2014-Jul-24 20:33N 36°37' W 008°38'2319.5
2014-Jul-24 19:24N 36°30' W 008°11'1619.7
2014-Jul-24 18:33N 36°24' W 007°52'2020.0
2014-Jul-24 17:33N 36°18' W 007°28'26619.0
2014-Jul-24 03:31N 36°29' W 001°58'2020.7
2014-Jul-24 02:33N 36°32' W 001°33'4020.4
2014-Jul-24 00:34N 36°39' W 000°44'2020.3
2014-Jul-23 23:33N 36°43' W 000°19'2020.5
2014-Jul-23 22:33N 36°47' E 000°06'2120.5
2014-Jul-23 21:33N 36°51' E 000°32'2020.3
2014-Jul-23 20:33N 36°54' E 000°57'2121.0
2014-Jul-23 19:33N 36°58' E 001°22'2019.6
2014-Jul-23 18:33N 37°02' E 001°46'2121.3
2014-Jul-23 17:33N 37°05' E 002°13'2121.0
2014-Jul-23 16:33N 37°09' E 002°39'2020.3
2014-Jul-23 15:33N 37°13' E 003°04'2020.4
2014-Jul-23 14:34N 37°16' E 003°29'2120.7
2014-Jul-23 13:33N 37°20' E 003°55'2120.7
2014-Jul-23 12:33N 37°24' E 004°20'2120.9
2014-Jul-23 11:34N 37°27' E 004°46'2422.4
2014-Jul-23 10:30N 37°32' E 005°16'1819.0
2014-Jul-23 09:33N 37°35' E 005°38'2120.8
2014-Jul-23 08:33N 37°39' E 006°04'4521.2
2014-Jul-23 06:25N 37°47' E 006°60'30519.0
2014-Jul-22 14:24N 36°44' E 013°15'1720.1
2014-Jul-22 13:33N 36°39' E 013°35'2020.1
2014-Jul-22 12:33N 36°33' E 013°59'2020.0
2014-Jul-22 11:33N 36°27' E 014°23'  

Dump ship's entire track history